TIV weather

Tivat Airport
Tivat, Tivat Municipality, Montenegro

Public forecast

Using degrees Celsius for public forecast. Weather courtesy of forecast.io.

METAR (pilot weather report)

Retrieved 2019/05/24 04:30 UTC (0 seconds ago):

LYTV 240430Z VRB01KT CAVOK 12/11 Q1012 NOSIG

TAF (pilot weather forecast)

Forecast is more than 12 hours old.

Retrieved 2019/05/23 00:21 UTC (1 day ago):

TAF LYTV 232300Z 2400/2424 36005KT 9999 SCT040 TX24/2413Z TN09/2403Z TEMPO 2411/2417 VRB15G25KT TSRA FEW030CB SCT040